Time;durP1;ratioP1;P1;durP2;ratioP2;P2;SDS_P1;SDS_P2;PMS_P1;PMS_P2;Temp;Humidity;BMP_temperature;BMP_pressure;BME280_temperature;BME280_humidity;BME280_pressure;Samples;Min_cycle;Max_cycle;Signal;HPM_P1;HPM_P2
2024/01/03 00:01:44;;;;;;;4.83;1.60;;;12.10;96.20;;;13.42;68.42;98127.81;3081832;46;20427;-67
2024/01/03 00:04:25;;;;;;;4.90;1.73;;;12.10;96.30;;;13.32;68.60;98122.47;3081976;46;20448;-67
2024/01/03 00:06:53;;;;;;;6.90;1.60;;;12.10;96.30;;;13.35;68.90;98121.19;3081060;46;20436;-66
2024/01/03 00:09:21;;;;;;;5.40;1.70;;;12.10;96.40;;;13.35;68.68;98116.69;3081845;46;20452;-66
2024/01/03 00:11:51;;;;;;;7.07;1.60;;;12.10;96.40;;;13.33;68.45;98105.59;3082028;46;20424;-67
2024/01/03 00:14:29;;;;;;;7.70;2.10;;;12.10;96.40;;;13.32;68.85;98119.03;3081697;46;20432;-66
2024/01/03 00:17:04;;;;;;;4.57;1.50;;;12.10;96.50;;;13.28;68.77;98110.84;3081839;46;20490;-65
2024/01/03 00:19:35;;;;;;;7.00;1.70;;;12.10;96.40;;;13.24;68.73;98107.09;3081152;46;20428;-65
2024/01/03 00:22:04;;;;;;;6.27;1.53;;;12.00;96.40;;;13.24;68.39;98112.38;3081983;46;20536;-67
2024/01/03 00:24:48;;;;;;;4.70;1.43;;;12.00;96.30;;;13.23;68.02;98120.59;3081729;46;20982;-68
2024/01/03 00:27:19;;;;;;;4.17;1.50;;;12.00;96.30;;;13.23;68.33;98108.19;3080385;46;20481;-66
2024/01/03 00:30:06;;;;;;;4.30;1.63;;;12.00;96.10;;;13.18;68.02;98121.34;3080693;46;20559;-67
2024/01/03 00:32:35;;;;;;;5.53;1.70;;;12.00;96.00;;;13.26;68.02;98110.31;3081680;46;20427;-67
2024/01/03 00:35:14;;;;;;;6.37;1.70;;;12.00;96.00;;;13.30;67.80;98119.31;3081497;46;21037;-67
2024/01/03 00:37:43;;;;;;;9.03;2.23;;;12.00;95.90;;;13.26;67.25;98126.16;3080799;46;20443;-65
2024/01/03 00:40:54;;;;;;;5.30;1.23;;;12.00;95.80;;;13.15;67.66;98111.28;3080996;46;20432;-66
2024/01/03 00:43:23;;;;;;;7.13;2.00;;;12.00;95.50;;;13.17;67.50;98109.19;3081858;46;20507;-65
2024/01/03 00:45:51;;;;;;;6.40;1.20;;;12.00;95.50;;;13.18;67.40;98108.16;3081653;46;20542;-67
2024/01/03 00:48:20;;;;;;;6.17;1.30;;;12.10;95.40;;;13.24;67.54;98112.38;3080977;46;20440;-65
2024/01/03 00:50:49;;;;;;;3.47;1.40;;;12.00;95.40;;;13.20;67.70;98103.41;3081180;46;21153;-67
2024/01/03 00:53:18;;;;;;;4.60;1.27;;;12.10;95.60;;;13.16;68.33;98112.88;3081458;46;20487;-66
2024/01/03 00:55:47;;;;;;;4.00;1.43;;;12.00;95.90;;;13.19;67.96;98138.00;3081427;46;21009;-67
2024/01/03 00:58:15;;;;;;;5.30;1.20;;;12.00;95.90;;;13.13;68.53;98128.44;3080695;46;20531;-66
2024/01/03 01:00:43;;;;;;;6.70;1.87;;;12.00;96.20;;;13.09;69.01;98128.16;3081368;46;20452;-65
2024/01/03 01:03:12;;;;;;;6.60;1.93;;;11.90;96.30;;;12.93;69.92;98114.03;3080849;46;20521;-66
2024/01/03 01:05:41;;;;;;;8.33;1.63;;;11.90;96.60;;;12.90;69.54;98121.69;3081592;46;20545;-65
2024/01/03 01:08:10;;;;;;;5.60;1.73;;;11.80;96.50;;;12.92;69.44;98127.50;3080503;46;20461;-67
2024/01/03 01:10:38;;;;;;;5.73;1.43;;;11.70;96.60;;;12.93;69.31;98123.81;3081081;46;20429;-67
2024/01/03 01:13:07;;;;;;;6.03;1.27;;;11.70;96.70;;;12.94;69.20;98128.03;3081234;46;20455;-66
2024/01/03 01:15:35;;;;;;;3.77;1.20;;;11.70;96.80;;;12.96;69.32;98120.66;3081027;46;20574;-66
2024/01/03 01:18:04;;;;;;;4.47;1.30;;;11.60;97.10;;;12.96;69.34;98135.69;3080437;46;20439;-64
2024/01/03 01:20:33;;;;;;;3.57;1.27;;;11.60;96.90;;;12.90;nan;98108.47;3080430;46;20532;-66
2024/01/03 01:23:01;;;;;;;5.77;1.17;;;11.60;96.80;;;12.89;69.37;98109.50;3081197;46;20457;-67
2024/01/03 01:25:30;;;;;;;4.37;1.17;;;11.60;96.80;;;12.86;69.55;98118.72;3081006;46;20432;-66
2024/01/03 01:27:58;;;;;;;4.67;1.40;;;11.60;96.80;;;12.75;69.59;98111.00;3080525;46;20480;-66
2024/01/03 01:30:27;;;;;;;2.50;1.30;;;11.60;96.80;;;12.78;69.78;98115.78;3080937;46;20431;-66
2024/01/03 01:32:55;;;;;;;5.27;1.27;;;11.60;96.80;;;12.79;69.82;98127.91;3081222;46;21111;-67
2024/01/03 01:35:23;;;;;;;2.93;1.10;;;11.60;96.70;;;12.83;69.66;98123.75;3080861;46;20432;-66
2024/01/03 01:37:52;;;;;;;1.67;0.90;;;11.60;96.80;;;12.80;69.10;98121.59;3080389;46;20439;-66
2024/01/03 01:40:20;;;;;;;3.50;1.00;;;11.60;96.60;;;12.83;69.52;98145.66;3081658;46;20469;-66
2024/01/03 01:42:49;;;;;;;5.13;1.00;;;11.60;96.60;;;12.84;69.21;98141.16;3082731;46;20431;-66
2024/01/03 01:45:17;;;;;;;2.63;0.97;;;11.50;96.70;;;12.84;69.47;98152.50;3083420;46;21094;-66
2024/01/03 01:47:45;;;;;;;2.70;1.37;;;11.60;96.80;;;12.85;69.42;98143.56;3082802;46;20583;-65
2024/01/03 01:50:14;;;;;;;2.10;1.20;;;11.60;96.80;;;12.86;69.29;98145.13;3082668;46;20440;-67
2024/01/03 01:52:43;;;;;;;3.47;1.13;;;11.50;96.90;;;12.77;69.97;98148.50;3083215;46;20435;-66
2024/01/03 01:55:12;;;;;;;2.60;1.20;;;11.50;97.00;;;12.77;69.83;98156.41;3083115;46;20478;-67
2024/01/03 01:57:42;;;;;;;5.77;1.63;;;11.50;97.00;;;12.77;69.74;98156.41;3082009;46;20472;-66
2024/01/03 02:00:13;;;;;;;5.13;1.33;;;11.50;97.00;;;12.78;69.83;98155.38;3082998;46;20488;-66
2024/01/03 02:02:44;;;;;;;4.10;1.20;;;11.50;97.10;;;12.80;69.45;98162.00;3083190;46;21000;-63
2024/01/03 02:05:13;;;;;;;1.47;1.10;;;11.40;97.00;;;12.78;70.16;98158.00;3082502;46;21070;-66
2024/01/03 02:07:42;;;;;;;4.33;1.27;;;11.40;97.10;;;12.80;70.16;98182.31;3082812;46;20439;-65
2024/01/03 02:10:10;;;;;;;5.37;1.00;;;11.40;97.20;;;12.80;69.75;98166.47;3082747;46;20469;-66
2024/01/03 02:12:39;;;;;;;2.13;1.20;;;11.40;97.10;;;12.78;69.84;98194.97;3083125;46;20528;-65
2024/01/03 02:15:07;;;;;;;2.23;1.10;;;11.40;97.00;;;12.71;69.86;98186.47;3083137;46;20571;-64
2024/01/03 02:17:38;;;;;;;4.17;0.80;;;11.40;96.90;;;12.70;69.69;98166.38;3082478;46;20448;-71
2024/01/03 02:20:08;;;;;;;3.97;0.90;;;11.40;96.90;;;12.68;69.93;98189.59;3082027;46;20580;-64
2024/01/03 02:22:36;;;;;;;2.17;1.03;;;11.30;96.90;;;12.68;69.58;98173.75;3082794;46;20499;-65
2024/01/03 02:25:10;;;;;;;2.87;1.20;;;11.30;96.80;;;12.67;69.64;98177.47;3083211;46;20453;-65
2024/01/03 02:27:38;;;;;;;2.77;1.20;;;11.30;96.80;;;12.65;69.61;98176.88;3082460;46;20455;-66
2024/01/03 02:30:10;;;;;;;2.17;1.00;;;11.30;96.90;;;12.62;69.85;98170.28;3082726;46;20545;-66
2024/01/03 02:32:38;;;;;;;3.40;1.37;;;11.30;97.00;;;12.55;70.09;98171.53;3083016;46;20460;-65
2024/01/03 02:35:07;;;;;;;4.20;0.90;;;11.30;97.00;;;12.49;70.35;98180.44;3082718;46;20427;-66
2024/01/03 02:37:36;;;;;;;1.43;0.80;;;11.30;97.00;;;12.49;69.93;98159.34;3082369;46;20471;-67
2024/01/03 02:40:06;;;;;;;3.43;1.00;;;11.30;96.90;;;12.46;69.29;98165.09;3081880;46;20428;-64
2024/01/03 02:42:34;;;;;;;1.80;0.60;;;11.20;96.50;;;12.46;69.55;98151.91;3082840;46;20434;-65
2024/01/03 02:45:03;;;;;;;2.63;0.70;;;11.20;96.50;;;12.43;69.41;98160.34;3082828;46;20456;-67
2024/01/03 02:47:31;;;;;;;2.70;0.73;;;11.10;96.40;;;12.41;69.23;98160.59;3082470;46;20467;-66
2024/01/03 02:50:00;;;;;;;1.77;1.00;;;11.10;96.40;;;12.39;68.60;98160.03;3082375;46;20465;-66
2024/01/03 02:52:29;;;;;;;2.30;1.00;;;11.10;96.30;;;12.35;68.89;98156.31;3082185;46;20427;-66
2024/01/03 02:54:57;;;;;;;2.00;0.70;;;11.00;96.20;;;12.32;68.67;98142.81;3082605;46;20572;-67
2024/01/03 02:57:25;;;;;;;5.07;1.00;;;11.00;96.20;;;12.25;68.98;98153.56;3082104;46;21003;-66
2024/01/03 02:59:54;;;;;;;2.30;0.60;;;11.00;96.20;;;12.20;68.74;98146.41;3082806;46;20428;-66
2024/01/03 03:02:22;;;;;;;3.93;1.23;;;11.00;96.10;;;12.21;68.92;98153.28;3082659;46;20526;-66
2024/01/03 03:04:51;;;;;;;3.17;0.80;;;11.00;96.20;;;12.19;68.72;98144.81;3082518;46;21110;-66
2024/01/03 03:07:19;;;;;;;2.30;0.87;;;10.90;96.20;;;12.13;69.31;98153.72;3082151;46;20456;-66
2024/01/03 03:09:47;;;;;;;4.10;1.00;;;10.90;96.30;;;12.10;69.56;98159.47;3082461;46;20427;-65
2024/01/03 03:12:16;;;;;;;2.23;0.93;;;10.90;96.40;;;12.10;69.44;98161.31;3082682;46;20456;-66
2024/01/03 03:14:44;;;;;;;1.77;0.87;;;10.90;96.50;;;12.01;69.68;98163.59;3082638;46;20451;-65
2024/01/03 03:17:13;;;;;;;2.87;0.97;;;10.90;96.70;;;11.99;69.87;98181.53;3082282;46;20536;-65
2024/01/03 03:19:42;;;;;;;1.33;0.70;;;10.80;96.60;;;11.95;70.08;98164.63;3082182;46;21130;-66
2024/01/03 03:22:10;;;;;;;2.37;1.07;;;10.80;96.70;;;11.87;70.15;98167.66;3082297;46;20525;-67
2024/01/03 03:24:39;;;;;;;2.37;0.60;;;10.70;96.70;;;11.90;69.82;98169.81;3082450;46;20456;-66
2024/01/03 03:27:07;;;;;;;1.73;0.80;;;10.70;96.70;;;11.92;69.89;98165.09;3082072;46;20508;-67
2024/01/03 03:29:35;;;;;;;3.90;0.80;;;10.70;96.70;;;11.92;70.03;98180.09;3082371;46;20455;-65
2024/01/03 03:32:05;;;;;;;1.47;0.60;;;10.60;96.80;;;11.94;69.99;98184.09;3082228;46;20428;-66
2024/01/03 03:34:33;;;;;;;1.80;1.00;;;10.70;96.90;;;11.92;70.02;98191.47;3082119;46;20556;-66
2024/01/03 03:37:02;;;;;;;1.10;0.77;;;10.70;96.90;;;11.92;70.31;98191.47;3082124;46;20451;-66
2024/01/03 03:39:30;;;;;;;3.00;1.07;;;10.60;97.10;;;11.91;70.68;98179.31;3082277;46;20539;-66
2024/01/03 03:41:59;;;;;;;1.17;0.60;;;10.60;97.10;;;11.92;70.66;98180.91;3082078;46;20993;-65
2024/01/03 03:44:28;;;;;;;1.03;0.70;;;10.60;97.30;;;11.93;70.78;98164.03;3082322;46;20428;-66
2024/01/03 03:46:56;;;;;;;0.97;0.60;;;10.60;97.30;;;11.88;71.15;98168.47;3081884;46;20464;-65
2024/01/03 03:49:25;;;;;;;1.70;0.83;;;10.60;97.40;;;11.83;71.41;98160.50;3081635;46;20427;-65
2024/01/03 03:51:53;;;;;;;2.43;0.70;;;10.60;97.50;;;11.88;71.33;98166.63;3081961;46;20448;-65
2024/01/03 03:54:21;;;;;;;1.40;0.50;;;10.60;97.60;;;11.93;71.03;98171.94;3081851;46;20431;-66
2024/01/03 03:56:50;;;;;;;3.33;0.80;;;10.60;97.70;;;11.94;71.58;98162.19;3081800;46;20903;-62
2024/01/03 03:59:18;;;;;;;1.57;0.70;;;10.60;97.90;;;11.94;71.76;98184.09;3081986;46;20568;-66
2024/01/03 04:01:50;;;;;;;3.23;0.77;;;10.60;98.00;;;11.95;71.76;98184.91;3082058;46;20423;-65
2024/01/03 04:04:19;;;;;;;1.00;0.63;;;10.60;98.10;;;11.98;71.77;98177.28;3081230;46;20474;-65
2024/01/03 04:06:47;;;;;;;2.00;0.80;;;10.60;98.10;;;12.00;71.98;98188.41;3081545;46;20493;-64
2024/01/03 04:09:16;;;;;;;1.83;0.50;;;10.60;98.20;;;11.99;72.43;98172.81;3082022;46;20469;-67
2024/01/03 04:11:45;;;;;;;1.90;0.70;;;10.60;98.40;;;11.97;72.52;98170.44;3081568;46;21103;-62
2024/01/03 04:14:13;;;;;;;3.13;1.27;;;10.60;98.40;;;11.96;72.57;98171.47;3081882;46;20546;-66
2024/01/03 04:16:41;;;;;;;2.93;0.80;;;10.60;98.50;;;11.98;72.24;98166.72;3081628;46;20432;-67
2024/01/03 04:19:10;;;;;;;2.00;0.80;;;10.60;98.50;;;12.00;72.53;98169.94;3082211;46;20456;-70
2024/01/03 04:21:38;;;;;;;3.07;1.00;;;10.60;98.60;;;12.01;72.42;98168.09;3081597;46;21024;-66
2024/01/03 04:24:07;;;;;;;1.67;1.03;;;10.60;98.70;;;12.03;72.33;98187.88;3081838;46;21004;-65
2024/01/03 04:26:36;;;;;;;3.43;1.00;;;10.60;98.80;;;12.02;72.57;98183.66;3080679;46;20450;-66
2024/01/03 04:29:04;;;;;;;2.37;1.00;;;10.60;98.80;;;12.05;72.58;98177.13;3081754;46;20519;-66
2024/01/03 04:31:33;;;;;;;5.13;1.57;;;10.60;98.90;;;12.05;72.74;98175.25;3081674;46;20460;-65
2024/01/03 04:34:01;;;;;;;6.73;1.53;;;10.50;99.00;;;12.03;72.82;98174.69;3081521;46;20459;-66
2024/01/03 04:36:30;;;;;;;5.17;1.50;;;10.50;99.10;;;12.03;72.80;98179.97;3081238;46;20577;-67
2024/01/03 04:38:58;;;;;;;3.60;1.40;;;10.50;99.10;;;12.00;73.71;98180.50;3081139;46;20607;-65
2024/01/03 04:41:27;;;;;;;4.03;1.50;;;10.50;99.30;;;11.93;74.04;98177.22;3081592;46;20452;-66
2024/01/03 04:43:56;;;;;;;6.77;1.93;;;10.50;99.30;;;11.91;74.20;98187.22;3081759;46;20466;-65
2024/01/03 04:46:24;;;;;;;12.13;2.67;;;10.50;99.30;;;11.91;73.89;98176.66;3081210;46;20438;-66
2024/01/03 04:48:52;;;;;;;7.93;2.17;;;10.50;99.30;;;11.90;74.09;98183.00;3080717;46;21044;-64
2024/01/03 04:51:22;;;;;;;11.53;2.00;;;10.50;99.30;;;11.88;74.19;98182.44;3081184;46;21070;-64
2024/01/03 04:53:51;;;;;;;7.97;2.60;;;10.50;99.40;;;11.92;74.22;98186.19;3081266;46;21059;-65
2024/01/03 04:56:21;;;;;;;5.03;1.83;;;10.50;99.40;;;11.94;73.87;98194.63;3081837;46;20498;-66
2024/01/03 04:58:49;;;;;;;7.53;2.37;;;10.60;99.40;;;11.96;73.75;98202.28;3081077;46;20536;-65
2024/01/03 05:01:18;;;;;;;7.73;2.53;;;10.50;99.40;;;11.96;73.84;98208.38;3080894;46;20497;-64
2024/01/03 05:03:46;;;;;;;6.97;2.23;;;10.50;99.50;;;11.97;73.83;98212.59;3081188;46;20492;-66
2024/01/03 05:06:15;;;;;;;11.17;2.03;;;10.50;99.50;;;11.98;73.88;98206.28;3081224;46;21017;-65
2024/01/03 05:08:43;;;;;;;7.00;2.37;;;10.50;99.50;;;12.00;74.02;98225.31;3080613;46;20523;-66
2024/01/03 05:11:11;;;;;;;5.93;2.10;;;10.50;99.40;;;11.98;73.69;98211.53;3081121;46;20546;-65
2024/01/03 05:13:43;;;;;;;6.00;2.33;;;10.50;99.40;;;12.00;74.00;98214.75;3080661;46;21109;-66
2024/01/03 05:16:12;;;;;;;12.33;2.30;;;10.60;99.40;;;12.02;73.60;98202.13;3081104;46;20440;-66
2024/01/03 05:18:40;;;;;;;9.47;2.20;;;10.60;99.30;;;12.02;73.49;98217.94;3080457;46;20474;-66
2024/01/03 05:21:09;;;;;;;7.53;2.33;;;10.60;99.20;;;12.06;73.42;98221.66;3080865;46;20508;-62
2024/01/03 05:23:37;;;;;;;7.63;2.20;;;10.60;99.10;;;12.07;73.53;98215.38;3080827;46;20496;-64
2024/01/03 05:26:05;;;;;;;12.60;3.00;;;10.60;99.00;;;12.10;73.39;98228.03;3081259;46;20427;-66
2024/01/03 05:28:34;;;;;;;10.03;3.03;;;10.60;98.80;;;12.12;72.98;98220.66;3080290;46;21108;-66
2024/01/03 05:31:02;;;;;;;7.60;2.40;;;10.70;98.80;;;12.14;72.85;98226.53;3080743;46;20459;-66
2024/01/03 05:33:31;;;;;;;8.23;2.37;;;10.70;98.80;;;12.16;72.39;98234.97;3080797;46;20994;-64
2024/01/03 05:36:00;;;;;;;7.30;2.10;;;10.70;98.50;;;12.19;72.32;98231.06;3080851;46;20431;-66
2024/01/03 05:38:28;;;;;;;8.73;2.30;;;10.70;98.30;;;12.16;70.91;98231.53;3080498;46;20476;-66
2024/01/03 05:40:57;;;;;;;7.60;2.40;;;10.70;97.80;;;12.21;71.44;98226.31;3080499;46;20452;-66
2024/01/03 05:43:25;;;;;;;7.07;1.93;;;10.80;97.70;;;12.24;71.07;98241.66;3081294;46;20505;-65
2024/01/03 05:45:53;;;;;;;9.07;2.03;;;10.80;97.10;;;12.30;70.35;98242.50;3081010;46;20428;-66
2024/01/03 05:48:22;;;;;;;7.57;2.10;;;10.80;97.20;;;12.31;69.96;98263.38;3080627;46;20441;-66
2024/01/03 05:50:50;;;;;;;8.97;2.17;;;10.80;96.80;;;12.35;69.59;98264.47;3080442;46;20427;-66
2024/01/03 05:53:19;;;;;;;9.83;1.87;;;10.90;96.70;;;12.43;69.33;98260.59;3080895;46;20432;-65
2024/01/03 05:55:47;;;;;;;8.20;1.80;;;10.90;96.50;;;12.46;68.83;98265.34;3080678;46;20431;-65
2024/01/03 05:58:16;;;;;;;8.43;1.80;;;10.90;96.20;;;12.49;68.59;98260.41;3080192;46;20439;-66
2024/01/03 06:00:44;;;;;;;6.47;1.53;;;11.00;96.20;;;12.53;67.85;98271.22;3080151;46;21111;-66
2024/01/03 06:03:12;;;;;;;4.70;1.40;;;11.00;95.90;;;12.52;67.15;98274.94;3080617;46;21044;-67
2024/01/03 06:05:41;;;;;;;3.80;1.70;;;11.00;95.60;;;12.55;67.23;98274.44;3081032;46;20432;-66
2024/01/03 06:08:10;;;;;;;8.87;1.97;;;11.00;95.70;;;12.56;67.19;98284.75;3080093;46;20465;-66
2024/01/03 06:10:39;;;;;;;5.13;2.00;;;11.10;95.60;;;12.56;66.44;98273.38;3080500;46;20419;-66
2024/01/03 06:13:11;;;;;;;8.70;2.27;;;11.10;95.40;;;12.55;66.39;98269.16;3080314;46;20577;-67
2024/01/03 06:15:40;;;;;;;5.80;1.43;;;11.10;95.20;;;12.57;66.39;98278.44;3080774;46;20431;-66
2024/01/03 06:18:09;;;;;;;6.03;1.77;;;11.10;95.20;;;12.57;66.65;98289.00;3079898;46;20469;-66
2024/01/03 06:20:40;;;;;;;5.30;1.73;;;11.10;95.00;;;12.57;66.20;98282.91;3079955;46;20443;-67
2024/01/03 06:23:08;;;;;;;5.90;1.63;;;11.10;95.00;;;12.58;66.04;98276.56;3080069;46;20439;-67
2024/01/03 06:25:37;;;;;;;9.03;1.63;;;11.10;94.90;;;12.59;66.11;98291.38;3080697;46;20485;-66
2024/01/03 06:28:05;;;;;;;5.33;1.50;;;11.10;94.80;;;12.57;65.92;98296.91;3082506;46;20552;-66
2024/01/03 06:30:35;;;;;;;7.53;1.87;;;11.10;95.00;;;12.57;66.08;98298.75;3082539;46;20430;-66
2024/01/03 06:33:05;;;;;;;7.37;1.90;;;11.10;95.00;;;12.55;65.86;98303.47;3083288;46;20524;-66
2024/01/03 06:35:34;;;;;;;4.30;1.57;;;11.10;94.90;;;12.55;65.99;98298.19;3083066;46;20444;-66
2024/01/03 06:38:03;;;;;;;8.40;1.80;;;11.10;95.00;;;12.56;65.91;98305.06;3082294;46;20455;-66
2024/01/03 06:40:32;;;;;;;10.43;2.70;;;11.10;95.00;;;12.58;66.02;98308.22;3082752;46;20438;-66
2024/01/03 06:43:00;;;;;;;9.13;2.37;;;11.10;95.00;;;12.56;65.98;98328.78;3082693;46;20491;-67
2024/01/03 06:45:29;;;;;;;8.20;2.50;;;11.10;95.10;;;12.54;66.08;98317.69;3082762;46;20456;-67
2024/01/03 06:47:57;;;;;;;7.80;1.70;;;11.10;95.20;;;12.60;66.35;98324.66;3082067;43;20459;-66
2024/01/03 06:50:26;;;;;;;8.83;2.67;;;11.10;95.20;;;12.64;66.28;98336.28;3082248;46;20456;-67
2024/01/03 06:52:54;;;;;;;7.53;2.20;;;11.10;95.20;;;12.67;65.94;98349.78;3081700;46;21213;-67
2024/01/03 06:55:23;;;;;;;7.67;2.33;;;11.10;95.20;;;12.71;66.00;98344.81;3082469;46;20427;-67
2024/01/03 06:57:53;;;;;;;10.20;2.73;;;11.20;95.30;;;12.74;66.25;98347.75;3081628;46;20526;-66
2024/01/03 07:00:21;;;;;;;9.53;2.03;;;11.20;95.30;;;12.75;66.17;98343.25;3081868;46;20514;-65
2024/01/03 07:02:50;;;;;;;5.70;2.23;;;11.30;95.30;;;12.78;65.83;98353.34;3082582;46;20505;-63
2024/01/03 07:05:18;;;;;;;7.53;2.33;;;11.20;95.40;;;12.79;66.31;98370.75;3082004;46;20481;-66
2024/01/03 07:07:47;;;;;;;7.17;1.90;;;11.30;95.40;;;12.81;65.90;98373.97;3081352;44;20531;-66
2024/01/03 07:10:16;;;;;;;7.83;2.10;;;11.30;95.20;;;12.84;65.95;98373.44;3082157;46;20455;-64
2024/01/03 07:12:44;;;;;;;6.83;2.43;;;11.30;95.50;;;12.86;65.94;98372.16;3080022;46;20444;-66
2024/01/03 07:15:17;;;;;;;6.73;2.73;;;11.30;95.10;;;12.90;65.93;98375.13;3081661;46;20659;-66
2024/01/03 07:17:45;;;;;;;8.63;2.20;;;11.30;95.20;;;12.90;65.49;98380.41;3081224;46;20567;-67
2024/01/03 07:20:14;;;;;;;7.13;2.27;;;11.30;94.90;;;12.90;65.43;98378.56;3082116;46;20431;-67
2024/01/03 07:22:42;;;;;;;8.37;2.67;;;11.40;94.90;;;12.92;65.42;98391.50;3081804;46;20542;-64
2024/01/03 07:25:11;;;;;;;7.43;2.03;;;11.40;94.90;;;12.93;65.11;98393.13;3081804;46;20467;-66
2024/01/03 07:27:39;;;;;;;9.07;1.80;;;11.40;94.80;;;12.94;64.89;98378.84;3081286;46;20447;-67
2024/01/03 07:30:10;;;;;;;5.67;1.93;;;11.40;94.70;;;12.95;65.03;98385.75;3081942;46;20456;-67
2024/01/03 07:32:38;;;;;;;6.07;1.57;;;11.40;94.70;;;12.95;64.75;98375.19;3081894;46;20541;-67
2024/01/03 07:35:07;;;;;;;5.50;1.80;;;11.40;94.60;;;12.95;64.95;98391.03;3082187;46;20540;-67
2024/01/03 07:37:36;;;;;;;6.13;2.17;;;11.50;94.70;;;12.96;65.10;98397.06;3079395;46;20440;-67
2024/01/03 07:40:06;;;;;;;6.30;1.73;;;11.50;94.70;;;12.98;65.57;98408.22;3080980;46;20493;-67
2024/01/03 07:42:34;;;;;;;5.43;2.23;;;11.50;94.80;;;12.98;64.96;98403.72;3080297;46;20423;-65
2024/01/03 07:45:03;;;;;;;9.03;2.03;;;11.50;94.80;;;12.98;64.91;98393.16;3080822;46;21038;-67
2024/01/03 07:47:31;;;;;;;11.13;2.80;;;11.50;94.90;;;12.96;65.32;98397.88;3080413;46;20492;-66
2024/01/03 07:50:00;;;;;;;9.67;2.70;;;11.50;94.90;;;12.97;65.45;98404.78;3081749;46;20432;-64
2024/01/03 07:52:28;;;;;;;13.40;3.63;;;11.50;94.90;;;12.98;65.64;98400.28;3080611;46;20456;-67
2024/01/03 07:54:57;;;;;;;10.27;2.60;;;11.50;95.00;;;12.99;65.17;98401.88;3081297;46;20573;-64
2024/01/03 07:57:25;;;;;;;10.50;3.27;;;11.50;95.00;;;12.97;65.23;98406.59;3081630;46;20473;-65
2024/01/03 07:59:54;;;;;;;11.77;3.07;;;11.50;94.90;;;12.95;65.40;98412.16;3081730;46;21146;-67
2024/01/03 08:02:22;;;;;;;9.83;3.27;;;11.50;94.90;;;12.96;65.38;98419.00;3081192;46;20432;-67
2024/01/03 08:04:51;;;;;;;12.63;3.90;;;11.50;95.00;;;12.97;65.49;98417.97;3080812;46;21178;-67
2024/01/03 08:07:19;;;;;;;8.90;2.70;;;11.50;95.00;;;12.99;65.73;98417.72;3081058;43;20446;-66
2024/01/03 08:09:49;;;;;;;8.90;3.43;;;11.50;95.00;;;12.99;65.37;98423.78;3081549;46;20432;-67
2024/01/03 08:12:17;;;;;;;8.53;3.03;;;11.50;95.00;;;12.98;65.44;98427.47;3081745;46;20447;-67
2024/01/03 08:14:45;;;;;;;9.03;2.73;;;11.50;95.10;;;12.98;65.66;98424.06;3081870;46;21080;-67
2024/01/03 08:17:14;;;;;;;10.03;2.70;;;11.50;95.10;;;12.98;65.78;98427.47;3079791;46;20448;-67
2024/01/03 08:19:42;;;;;;;11.20;2.60;;;11.50;95.20;;;13.02;65.81;98423.31;3081088;46;21024;-67
2024/01/03 08:22:11;;;;;;;13.80;2.70;;;11.50;95.20;;;13.06;65.53;98424.44;3080589;46;20481;-66
2024/01/03 08:24:39;;;;;;;7.97;3.17;;;11.50;95.30;;;13.11;65.82;98421.84;3081112;46;20588;-67
2024/01/03 08:27:08;;;;;;;8.23;2.70;;;11.50;95.30;;;13.14;65.88;98431.94;3080292;46;20442;-68
2024/01/03 08:29:37;;;;;;;9.80;2.90;;;11.50;95.30;;;13.19;65.65;98423.25;3080824;46;22629;-66
2024/01/03 08:32:07;;;;;;;15.97;2.90;;;11.50;95.20;;;13.22;65.64;98428.03;3081501;46;20526;-65
2024/01/03 08:34:35;;;;;;;9.07;2.77;;;11.60;95.30;;;13.26;65.46;98429.16;3080889;46;21104;-67
2024/01/03 08:37:03;;;;;;;12.43;3.03;;;11.60;95.10;;;13.27;64.70;98436.81;3079710;46;20552;-67
2024/01/03 08:39:32;;;;;;;10.23;3.23;;;11.60;94.90;;;13.31;64.75;98442.41;3081304;46;20525;-64
2024/01/03 08:42:00;;;;;;;12.87;3.30;;;11.70;94.80;;;13.37;64.59;98442.22;3078772;46;20580;-67
2024/01/03 08:44:29;;;;;;;11.47;2.57;;;11.70;94.70;;;13.44;64.65;98437.53;3080061;46;20479;-67
2024/01/03 08:46:58;;;;;;;14.90;4.63;;;11.80;94.70;;;13.52;64.17;98439.72;3080395;46;20596;-67
2024/01/03 08:49:26;;;;;;;11.07;2.60;;;11.80;94.60;;;13.52;63.52;98450.28;3079382;46;20872;-67
2024/01/03 08:51:56;;;;;;;11.33;3.43;;;11.90;94.30;;;13.57;63.68;98446.91;3079699;46;20608;-68
2024/01/03 08:54:25;;;;;;;8.03;3.50;;;11.90;94.20;;;13.57;62.93;98441.63;3080188;46;20936;-67
2024/01/03 08:56:54;;;;;;;13.37;3.47;;;12.00;93.80;;;13.61;63.34;98441.91;3078780;46;20427;-68
2024/01/03 08:59:22;;;;;;;8.23;2.60;;;12.00;93.80;;;13.62;62.81;98454.84;3079018;46;20528;-66
2024/01/03 09:01:56;;;;;;;12.40;2.63;;;12.00;93.70;;;13.59;62.42;98452.72;3080877;43;20448;-65
2024/01/03 09:04:24;;;;;;;10.20;3.00;;;12.00;93.40;;;13.62;62.45;98454.06;3080203;46;21008;-67
2024/01/03 09:06:52;;;;;;;15.83;3.37;;;12.10;93.30;;;13.68;62.62;98450.41;3077881;46;20580;-67
2024/01/03 09:09:21;;;;;;;13.73;3.50;;;12.10;93.30;;;13.71;62.03;98457.84;3078399;46;20497;-67
2024/01/03 09:11:50;;;;;;;7.93;2.80;;;12.10;93.60;;;13.77;61.48;98462.13;3079787;46;20550;-66
2024/01/03 09:14:19;;;;;;;11.47;3.03;;;12.10;93.00;;;13.81;61.78;98463.25;3079000;46;20544;-67
2024/01/03 09:16:48;;;;;;;10.63;3.00;;;12.10;93.10;;;13.84;61.52;98478.59;3079609;46;20435;-67
2024/01/03 09:19:16;;;;;;;10.07;3.00;;;12.20;93.20;;;13.91;61.66;98473.88;3080593;46;20660;-64
2024/01/03 09:21:45;;;;;;;10.97;2.47;;;12.20;93.10;;;13.95;61.54;98480.28;3080185;46;21081;-66
2024/01/03 09:24:14;;;;;;;13.63;3.63;;;12.20;93.30;;;13.86;61.29;98473.88;3081183;46;21276;-66
2024/01/03 09:26:43;;;;;;;14.47;3.37;;;12.20;93.10;;;13.86;61.82;98477.28;3078782;46;20958;-68
2024/01/03 09:29:11;;;;;;;8.70;3.23;;;12.20;93.20;;;13.92;62.00;98472.84;3077682;46;20452;-67
2024/01/03 09:31:43;;;;;;;12.87;3.20;;;12.20;93.30;;;13.95;61.65;98475.00;3077313;46;20443;-69
2024/01/03 09:34:12;;;;;;;14.83;3.90;;;12.30;93.30;;;14.01;61.82;98468.69;3079616;46;21091;-67
2024/01/03 09:36:40;;;;;;;10.03;3.03;;;12.30;93.30;;;14.07;61.21;98488.84;3078526;46;20431;-67
2024/01/03 09:39:09;;;;;;;8.40;3.50;;;12.30;93.20;;;14.11;61.60;98479.34;3079276;46;20492;-67
2024/01/03 09:41:38;;;;;;;13.33;3.70;;;12.40;93.30;;;14.17;61.70;98483.63;3078124;46;20462;-67
2024/01/03 09:44:09;;;;;;;15.50;3.87;;;12.40;93.30;;;14.20;61.42;98488.41;3078358;46;20447;-66
2024/01/03 09:46:37;;;;;;;14.30;3.80;;;12.40;93.20;;;14.26;61.52;98488.19;3077495;46;20502;-68
2024/01/03 09:49:07;;;;;;;11.90;2.67;;;12.40;93.20;;;14.32;60.97;98494.34;3077499;46;20427;-65
2024/01/03 09:51:36;;;;;;;10.37;2.63;;;12.50;93.30;;;14.38;60.77;98501.28;3078253;46;20431;-67
2024/01/03 09:54:08;;;;;;;9.43;3.50;;;12.50;93.10;;;14.40;60.56;98499.19;3079821;46;20544;-67
2024/01/03 09:56:41;;;;;;;9.30;3.20;;;12.60;93.10;;;14.39;60.47;98502.88;3078628;46;20569;-67
2024/01/03 09:59:09;;;;;;;14.83;3.17;;;12.60;92.90;;;14.43;60.08;98508.47;3078215;46;20475;-67
2024/01/03 10:01:38;;;;;;;10.80;2.47;;;12.60;92.70;;;14.48;60.34;98511.94;3078504;46;20452;-67
2024/01/03 10:04:06;;;;;;;8.73;2.63;;;12.60;92.70;;;14.55;59.99;98515.16;3080449;46;20444;-67
2024/01/03 10:06:54;;;;;;;9.27;3.37;;;12.70;92.30;;;14.51;59.38;98515.91;3079365;46;20501;-67
2024/01/03 10:09:24;;;;;;;14.60;2.43;;;12.70;92.20;;;14.51;59.15;98527.31;3081159;46;20425;-67
2024/01/03 10:11:53;;;;;;;13.33;3.70;;;12.70;92.10;;;14.51;59.49;98516.72;3082493;46;20427;-66
2024/01/03 10:14:22;;;;;;;9.87;2.57;;;12.70;92.00;;;14.50;59.10;98520.41;3082690;46;20454;-67
2024/01/03 10:16:51;;;;;;;6.60;2.60;;;12.70;92.00;;;14.51;59.17;98527.31;3081514;46;20455;-67
2024/01/03 10:19:20;;;;;;;6.83;2.03;;;12.70;92.10;;;14.58;59.04;98519.16;3082251;46;20431;-68
2024/01/03 10:21:54;;;;;;;8.40;1.80;;;12.80;92.10;;;14.56;58.78;98518.59;3080694;46;20452;-67
2024/01/03 10:24:26;;;;;;;10.17;2.80;;;12.80;92.00;;;14.58;59.49;98517.31;3082070;46;20447;-67
2024/01/03 10:27:07;;;;;;;6.43;2.53;;;12.80;92.10;;;14.49;59.16;98518.84;3081547;46;20498;-67